sensor_id;sensor_type;location;lat;lon;timestamp;temperature;humidity
37560;DHT22;23398;50.928;7.084;2023-03-04T00:01:42;6.00;66.30
37560;DHT22;23398;50.928;7.084;2023-03-04T00:04:08;6.10;65.60
37560;DHT22;23398;50.928;7.084;2023-03-04T00:06:33;6.10;65.70
37560;DHT22;23398;50.928;7.084;2023-03-04T00:08:59;6.10;65.70
37560;DHT22;23398;50.928;7.084;2023-03-04T00:11:24;6.10;65.70
37560;DHT22;23398;50.928;7.084;2023-03-04T00:13:51;6.10;65.70
37560;DHT22;23398;50.928;7.084;2023-03-04T00:16:17;6.10;65.70
37560;DHT22;23398;50.928;7.084;2023-03-04T00:18:42;6.20;65.80
37560;DHT22;23398;50.928;7.084;2023-03-04T00:21:08;6.20;65.80
37560;DHT22;23398;50.928;7.084;2023-03-04T00:23:34;6.20;65.70
37560;DHT22;23398;50.928;7.084;2023-03-04T00:25:59;6.20;65.70
37560;DHT22;23398;50.928;7.084;2023-03-04T00:28:25;6.20;65.60
37560;DHT22;23398;50.928;7.084;2023-03-04T00:30:50;6.20;65.50
37560;DHT22;23398;50.928;7.084;2023-03-04T00:33:16;6.20;65.50
37560;DHT22;23398;50.928;7.084;2023-03-04T00:35:42;6.30;65.60
37560;DHT22;23398;50.928;7.084;2023-03-04T00:38:07;6.30;65.50
37560;DHT22;23398;50.928;7.084;2023-03-04T00:40:33;6.30;65.60
37560;DHT22;23398;50.928;7.084;2023-03-04T00:42:59;6.30;65.60
37560;DHT22;23398;50.928;7.084;2023-03-04T00:45:24;6.30;65.60
37560;DHT22;23398;50.928;7.084;2023-03-04T00:47:50;6.30;65.50
37560;DHT22;23398;50.928;7.084;2023-03-04T00:50:16;6.30;65.40
37560;DHT22;23398;50.928;7.084;2023-03-04T00:52:41;6.30;65.40
37560;DHT22;23398;50.928;7.084;2023-03-04T00:55:07;6.20;65.80
37560;DHT22;23398;50.928;7.084;2023-03-04T00:57:33;6.40;65.60
37560;DHT22;23398;50.928;7.084;2023-03-04T00:59:59;6.30;66.20
37560;DHT22;23398;50.928;7.084;2023-03-04T01:02:25;6.30;65.30
37560;DHT22;23398;50.928;7.084;2023-03-04T01:04:51;6.30;65.30
37560;DHT22;23398;50.928;7.084;2023-03-04T01:07:16;6.30;65.40
37560;DHT22;23398;50.928;7.084;2023-03-04T01:09:42;6.40;65.40
37560;DHT22;23398;50.928;7.084;2023-03-04T01:12:08;6.40;65.50
37560;DHT22;23398;50.928;7.084;2023-03-04T01:14:33;6.40;65.50
37560;DHT22;23398;50.928;7.084;2023-03-04T01:16:59;6.40;65.50
37560;DHT22;23398;50.928;7.084;2023-03-04T01:19:25;6.40;65.50
37560;DHT22;23398;50.928;7.084;2023-03-04T01:21:51;6.40;65.60
37560;DHT22;23398;50.928;7.084;2023-03-04T01:24:16;6.40;65.60
37560;DHT22;23398;50.928;7.084;2023-03-04T01:26:42;6.40;65.70
37560;DHT22;23398;50.928;7.084;2023-03-04T01:29:07;6.40;65.70
37560;DHT22;23398;50.928;7.084;2023-03-04T01:31:33;6.40;65.70
37560;DHT22;23398;50.928;7.084;2023-03-04T01:33:58;6.50;65.80
37560;DHT22;23398;50.928;7.084;2023-03-04T01:36:24;6.50;65.80
37560;DHT22;23398;50.928;7.084;2023-03-04T01:38:49;6.50;65.90
37560;DHT22;23398;50.928;7.084;2023-03-04T01:41:16;6.50;65.90
37560;DHT22;23398;50.928;7.084;2023-03-04T01:43:43;6.50;65.80
37560;DHT22;23398;50.928;7.084;2023-03-04T01:46:11;6.50;65.70
37560;DHT22;23398;50.928;7.084;2023-03-04T01:48:40;6.50;65.80
37560;DHT22;23398;50.928;7.084;2023-03-04T01:51:11;6.50;65.70
37560;DHT22;23398;50.928;7.084;2023-03-04T01:53:36;6.50;65.70
37560;DHT22;23398;50.928;7.084;2023-03-04T01:56:15;6.50;65.70
37560;DHT22;23398;50.928;7.084;2023-03-04T01:58:43;6.60;66.10
37560;DHT22;23398;50.928;7.084;2023-03-04T02:01:11;6.60;65.80
37560;DHT22;23398;50.928;7.084;2023-03-04T02:03:37;6.60;65.90
37560;DHT22;23398;50.928;7.084;2023-03-04T02:06:03;6.60;66.00
37560;DHT22;23398;50.928;7.084;2023-03-04T02:08:29;6.60;65.90
37560;DHT22;23398;50.928;7.084;2023-03-04T02:10:55;6.60;65.80
37560;DHT22;23398;50.928;7.084;2023-03-04T02:13:20;6.60;65.70
37560;DHT22;23398;50.928;7.084;2023-03-04T02:15:46;6.60;65.70
37560;DHT22;23398;50.928;7.084;2023-03-04T02:18:18;6.60;65.60
37560;DHT22;23398;50.928;7.084;2023-03-04T02:21:01;6.60;65.60
37560;DHT22;23398;50.928;7.084;2023-03-04T02:23:41;6.60;65.70
37560;DHT22;23398;50.928;7.084;2023-03-04T02:26:13;6.60;65.80
37560;DHT22;23398;50.928;7.084;2023-03-04T02:28:39;6.60;65.80
37560;DHT22;23398;50.928;7.084;2023-03-04T02:31:05;6.60;65.80
37560;DHT22;23398;50.928;7.084;2023-03-04T02:33:31;6.60;65.80
37560;DHT22;23398;50.928;7.084;2023-03-04T02:35:57;6.60;65.80
37560;DHT22;23398;50.928;7.084;2023-03-04T02:38:23;6.60;65.90
37560;DHT22;23398;50.928;7.084;2023-03-04T02:40:51;6.60;65.90
37560;DHT22;23398;50.928;7.084;2023-03-04T02:43:19;6.60;65.80
37560;DHT22;23398;50.928;7.084;2023-03-04T02:45:46;6.60;65.70
37560;DHT22;23398;50.928;7.084;2023-03-04T02:48:14;6.60;65.80
37560;DHT22;23398;50.928;7.084;2023-03-04T02:50:43;6.60;65.80
37560;DHT22;23398;50.928;7.084;2023-03-04T02:53:10;6.60;66.00
37560;DHT22;23398;50.928;7.084;2023-03-04T02:55:36;6.60;66.00
37560;DHT22;23398;50.928;7.084;2023-03-04T02:58:02;6.60;66.00
37560;DHT22;23398;50.928;7.084;2023-03-04T03:00:28;6.60;66.10
37560;DHT22;23398;50.928;7.084;2023-03-04T03:02:54;6.60;66.00
37560;DHT22;23398;50.928;7.084;2023-03-04T03:05:23;6.60;66.00
37560;DHT22;23398;50.928;7.084;2023-03-04T03:07:49;6.60;65.80
37560;DHT22;23398;50.928;7.084;2023-03-04T03:10:15;7.20;66.30
37560;DHT22;23398;50.928;7.084;2023-03-04T03:12:40;6.60;65.80
37560;DHT22;23398;50.928;7.084;2023-03-04T03:15:06;6.60;65.80
37560;DHT22;23398;50.928;7.084;2023-03-04T03:17:32;6.60;65.80
37560;DHT22;23398;50.928;7.084;2023-03-04T03:19:58;6.60;65.90
37560;DHT22;23398;50.928;7.084;2023-03-04T03:22:23;6.60;66.70
37560;DHT22;23398;50.928;7.084;2023-03-04T03:24:49;6.60;66.00
37560;DHT22;23398;50.928;7.084;2023-03-04T03:27:14;6.60;66.00
37560;DHT22;23398;50.928;7.084;2023-03-04T03:29:40;6.60;66.10
37560;DHT22;23398;50.928;7.084;2023-03-04T03:32:06;6.60;66.10
37560;DHT22;23398;50.928;7.084;2023-03-04T03:34:31;6.60;66.10
37560;DHT22;23398;50.928;7.084;2023-03-04T03:36:57;6.60;66.20
37560;DHT22;23398;50.928;7.084;2023-03-04T03:39:23;6.60;66.10
37560;DHT22;23398;50.928;7.084;2023-03-04T03:41:48;6.60;66.10
37560;DHT22;23398;50.928;7.084;2023-03-04T03:44:14;6.60;66.10
37560;DHT22;23398;50.928;7.084;2023-03-04T03:46:40;6.70;66.20
37560;DHT22;23398;50.928;7.084;2023-03-04T03:49:06;6.70;66.30
37560;DHT22;23398;50.928;7.084;2023-03-04T03:51:31;6.70;66.30
37560;DHT22;23398;50.928;7.084;2023-03-04T03:53:57;6.70;66.30
37560;DHT22;23398;50.928;7.084;2023-03-04T03:56:22;6.70;66.50
37560;DHT22;23398;50.928;7.084;2023-03-04T03:58:48;6.70;66.40
37560;DHT22;23398;50.928;7.084;2023-03-04T04:01:13;6.70;66.40
37560;DHT22;23398;50.928;7.084;2023-03-04T04:03:39;6.70;66.40
37560;DHT22;23398;50.928;7.084;2023-03-04T04:06:05;6.70;66.40
37560;DHT22;23398;50.928;7.084;2023-03-04T04:08:31;6.70;66.40
37560;DHT22;23398;50.928;7.084;2023-03-04T04:10:57;6.70;66.40
37560;DHT22;23398;50.928;7.084;2023-03-04T04:13:23;6.70;66.50
37560;DHT22;23398;50.928;7.084;2023-03-04T04:15:50;6.70;66.50
37560;DHT22;23398;50.928;7.084;2023-03-04T04:18:16;6.80;66.80
37560;DHT22;23398;50.928;7.084;2023-03-04T04:20:41;6.70;66.50
37560;DHT22;23398;50.928;7.084;2023-03-04T04:23:07;6.70;66.60
37560;DHT22;23398;50.928;7.084;2023-03-04T04:25:33;6.70;66.60
37560;DHT22;23398;50.928;7.084;2023-03-04T04:27:58;6.70;66.80
37560;DHT22;23398;50.928;7.084;2023-03-04T04:30:24;6.70;66.80
37560;DHT22;23398;50.928;7.084;2023-03-04T04:32:50;6.80;67.00
37560;DHT22;23398;50.928;7.084;2023-03-04T04:35:15;6.70;67.00
37560;DHT22;23398;50.928;7.084;2023-03-04T04:37:41;6.70;67.00
37560;DHT22;23398;50.928;7.084;2023-03-04T04:40:07;6.70;66.90
37560;DHT22;23398;50.928;7.084;2023-03-04T04:42:33;6.80;67.10
37560;DHT22;23398;50.928;7.084;2023-03-04T04:44:58;6.80;67.10
37560;DHT22;23398;50.928;7.084;2023-03-04T04:47:24;6.80;67.20
37560;DHT22;23398;50.928;7.084;2023-03-04T04:49:49;6.80;67.20
37560;DHT22;23398;50.928;7.084;2023-03-04T04:52:16;6.80;67.30
37560;DHT22;23398;50.928;7.084;2023-03-04T04:54:41;6.80;67.40
37560;DHT22;23398;50.928;7.084;2023-03-04T04:57:07;6.70;67.30
37560;DHT22;23398;50.928;7.084;2023-03-04T04:59:32;6.80;67.50
37560;DHT22;23398;50.928;7.084;2023-03-04T05:01:58;6.80;67.60
37560;DHT22;23398;50.928;7.084;2023-03-04T05:04:24;6.80;67.60
37560;DHT22;23398;50.928;7.084;2023-03-04T05:06:49;6.80;67.60
37560;DHT22;23398;50.928;7.084;2023-03-04T05:09:15;6.80;67.70
37560;DHT22;23398;50.928;7.084;2023-03-04T05:11:41;6.80;67.80
37560;DHT22;23398;50.928;7.084;2023-03-04T05:14:06;6.80;67.70
37560;DHT22;23398;50.928;7.084;2023-03-04T05:16:32;6.80;67.90
37560;DHT22;23398;50.928;7.084;2023-03-04T05:18:57;6.80;67.80
37560;DHT22;23398;50.928;7.084;2023-03-04T05:21:23;6.80;67.70
37560;DHT22;23398;50.928;7.084;2023-03-04T05:23:49;6.80;67.90
37560;DHT22;23398;50.928;7.084;2023-03-04T05:26:17;6.80;67.90
37560;DHT22;23398;50.928;7.084;2023-03-04T05:28:43;6.80;68.00
37560;DHT22;23398;50.928;7.084;2023-03-04T05:31:09;6.80;67.80
37560;DHT22;23398;50.928;7.084;2023-03-04T05:33:35;6.80;67.90
37560;DHT22;23398;50.928;7.084;2023-03-04T05:36:01;6.80;67.90
37560;DHT22;23398;50.928;7.084;2023-03-04T05:38:27;6.90;68.00
37560;DHT22;23398;50.928;7.084;2023-03-04T05:40:57;6.90;67.70
37560;DHT22;23398;50.928;7.084;2023-03-04T05:43:24;6.90;68.20
37560;DHT22;23398;50.928;7.084;2023-03-04T05:45:50;6.90;68.00
37560;DHT22;23398;50.928;7.084;2023-03-04T05:48:16;6.90;68.10
37560;DHT22;23398;50.928;7.084;2023-03-04T05:50:41;7.30;68.70
37560;DHT22;23398;50.928;7.084;2023-03-04T05:53:07;6.90;68.40
37560;DHT22;23398;50.928;7.084;2023-03-04T05:55:33;6.90;68.40
37560;DHT22;23398;50.928;7.084;2023-03-04T05:57:58;6.90;68.60
37560;DHT22;23398;50.928;7.084;2023-03-04T06:00:24;6.90;68.50
37560;DHT22;23398;50.928;7.084;2023-03-04T06:02:50;6.90;68.60
37560;DHT22;23398;50.928;7.084;2023-03-04T06:05:16;6.90;68.60
37560;DHT22;23398;50.928;7.084;2023-03-04T06:07:42;6.90;68.70
37560;DHT22;23398;50.928;7.084;2023-03-04T06:10:10;6.90;68.70
37560;DHT22;23398;50.928;7.084;2023-03-04T06:12:36;6.90;68.60
37560;DHT22;23398;50.928;7.084;2023-03-04T06:15:01;6.90;68.60
37560;DHT22;23398;50.928;7.084;2023-03-04T06:17:28;6.90;68.60
37560;DHT22;23398;50.928;7.084;2023-03-04T06:19:54;6.90;68.50
37560;DHT22;23398;50.928;7.084;2023-03-04T06:22:19;6.90;68.60
37560;DHT22;23398;50.928;7.084;2023-03-04T06:24:45;7.00;68.70
37560;DHT22;23398;50.928;7.084;2023-03-04T06:27:10;7.00;69.40
37560;DHT22;23398;50.928;7.084;2023-03-04T06:29:37;7.00;68.60
37560;DHT22;23398;50.928;7.084;2023-03-04T06:32:04;7.00;68.70
37560;DHT22;23398;50.928;7.084;2023-03-04T06:34:29;7.00;68.30
37560;DHT22;23398;50.928;7.084;2023-03-04T06:36:55;7.00;68.70
37560;DHT22;23398;50.928;7.084;2023-03-04T06:39:21;7.00;68.80
37560;DHT22;23398;50.928;7.084;2023-03-04T06:41:46;7.00;69.00
37560;DHT22;23398;50.928;7.084;2023-03-04T06:44:12;7.00;69.00
37560;DHT22;23398;50.928;7.084;2023-03-04T06:46:37;7.00;69.10
37560;DHT22;23398;50.928;7.084;2023-03-04T06:49:03;7.10;69.30
37560;DHT22;23398;50.928;7.084;2023-03-04T06:51:28;7.10;69.40
37560;DHT22;23398;50.928;7.084;2023-03-04T06:53:55;7.00;69.10
37560;DHT22;23398;50.928;7.084;2023-03-04T06:56:21;7.10;69.10
37560;DHT22;23398;50.928;7.084;2023-03-04T06:58:46;7.10;69.10
37560;DHT22;23398;50.928;7.084;2023-03-04T07:01:15;7.10;69.20
37560;DHT22;23398;50.928;7.084;2023-03-04T07:03:41;7.10;69.30
37560;DHT22;23398;50.928;7.084;2023-03-04T07:06:10;7.10;69.20
37560;DHT22;23398;50.928;7.084;2023-03-04T07:08:36;7.10;69.20
37560;DHT22;23398;50.928;7.084;2023-03-04T07:11:01;7.20;69.30
37560;DHT22;23398;50.928;7.084;2023-03-04T07:13:27;7.20;69.40
37560;DHT22;23398;50.928;7.084;2023-03-04T07:15:53;7.20;69.50
37560;DHT22;23398;50.928;7.084;2023-03-04T07:18:18;7.20;69.50
37560;DHT22;23398;50.928;7.084;2023-03-04T07:20:45;7.50;69.80
37560;DHT22;23398;50.928;7.084;2023-03-04T07:23:10;7.30;69.60
37560;DHT22;23398;50.928;7.084;2023-03-04T07:25:36;7.30;69.50
37560;DHT22;23398;50.928;7.084;2023-03-04T07:28:01;7.30;69.30
37560;DHT22;23398;50.928;7.084;2023-03-04T07:30:27;7.30;69.30
37560;DHT22;23398;50.928;7.084;2023-03-04T07:32:55;7.40;69.50
37560;DHT22;23398;50.928;7.084;2023-03-04T07:35:21;7.40;69.50
37560;DHT22;23398;50.928;7.084;2023-03-04T07:37:46;7.40;69.50
37560;DHT22;23398;50.928;7.084;2023-03-04T07:40:12;7.50;69.60
37560;DHT22;23398;50.928;7.084;2023-03-04T07:42:38;7.50;69.70
37560;DHT22;23398;50.928;7.084;2023-03-04T07:45:04;7.50;69.80
37560;DHT22;23398;50.928;7.084;2023-03-04T07:47:30;7.60;69.90
37560;DHT22;23398;50.928;7.084;2023-03-04T07:49:56;7.60;69.90
37560;DHT22;23398;50.928;7.084;2023-03-04T07:52:22;7.60;69.80
37560;DHT22;23398;50.928;7.084;2023-03-04T07:54:47;7.70;69.90
37560;DHT22;23398;50.928;7.084;2023-03-04T07:57:13;7.70;70.00
37560;DHT22;23398;50.928;7.084;2023-03-04T07:59:38;7.70;70.00
37560;DHT22;23398;50.928;7.084;2023-03-04T08:02:04;7.70;69.90
37560;DHT22;23398;50.928;7.084;2023-03-04T08:04:29;7.80;69.90
37560;DHT22;23398;50.928;7.084;2023-03-04T08:06:55;7.80;69.90
37560;DHT22;23398;50.928;7.084;2023-03-04T08:09:20;7.90;70.00
37560;DHT22;23398;50.928;7.084;2023-03-04T08:11:46;7.90;70.00
37560;DHT22;23398;50.928;7.084;2023-03-04T08:14:12;8.00;70.10
37560;DHT22;23398;50.928;7.084;2023-03-04T08:16:38;8.00;69.90
37560;DHT22;23398;50.928;7.084;2023-03-04T08:19:05;8.10;70.10
37560;DHT22;23398;50.928;7.084;2023-03-04T08:21:31;8.10;70.20
37560;DHT22;23398;50.928;7.084;2023-03-04T08:23:58;8.20;70.10
37560;DHT22;23398;50.928;7.084;2023-03-04T08:26:31;8.20;69.60
37560;DHT22;23398;50.928;7.084;2023-03-04T08:29:01;8.20;69.10
37560;DHT22;23398;50.928;7.084;2023-03-04T08:31:27;8.30;68.90
37560;DHT22;23398;50.928;7.084;2023-03-04T08:33:53;8.30;68.80
37560;DHT22;23398;50.928;7.084;2023-03-04T08:36:19;8.40;68.90
37560;DHT22;23398;50.928;7.084;2023-03-04T08:38:45;8.40;68.80
37560;DHT22;23398;50.928;7.084;2023-03-04T08:41:12;8.50;68.80
37560;DHT22;23398;50.928;7.084;2023-03-04T08:43:37;8.50;68.60
37560;DHT22;23398;50.928;7.084;2023-03-04T08:46:04;8.60;68.60
37560;DHT22;23398;50.928;7.084;2023-03-04T08:48:30;8.70;68.50
37560;DHT22;23398;50.928;7.084;2023-03-04T08:50:56;8.70;68.50
37560;DHT22;23398;50.928;7.084;2023-03-04T08:53:22;8.80;68.60
37560;DHT22;23398;50.928;7.084;2023-03-04T08:55:49;8.90;68.70
37560;DHT22;23398;50.928;7.084;2023-03-04T08:58:15;9.00;68.60
37560;DHT22;23398;50.928;7.084;2023-03-04T09:00:43;9.00;68.50
37560;DHT22;23398;50.928;7.084;2023-03-04T09:03:11;9.10;68.50
37560;DHT22;23398;50.928;7.084;2023-03-04T09:05:37;9.30;68.40
37560;DHT22;23398;50.928;7.084;2023-03-04T09:08:03;9.30;68.00
37560;DHT22;23398;50.928;7.084;2023-03-04T09:10:29;9.40;67.70
37560;DHT22;23398;50.928;7.084;2023-03-04T09:12:54;9.40;67.40
37560;DHT22;23398;50.928;7.084;2023-03-04T09:15:20;9.50;67.10
37560;DHT22;23398;50.928;7.084;2023-03-04T09:17:46;9.50;66.80
37560;DHT22;23398;50.928;7.084;2023-03-04T09:20:12;9.50;66.70
37560;DHT22;23398;50.928;7.084;2023-03-04T09:22:38;9.60;66.80
37560;DHT22;23398;50.928;7.084;2023-03-04T09:25:05;9.70;67.20
37560;DHT22;23398;50.928;7.084;2023-03-04T09:27:31;9.80;67.70
37560;DHT22;23398;50.928;7.084;2023-03-04T09:29:56;9.90;67.90
37560;DHT22;23398;50.928;7.084;2023-03-04T09:32:22;10.00;66.70
37560;DHT22;23398;50.928;7.084;2023-03-04T09:34:47;10.20;66.70
37560;DHT22;23398;50.928;7.084;2023-03-04T09:37:13;10.40;66.60
37560;DHT22;23398;50.928;7.084;2023-03-04T09:39:38;10.60;66.70
37560;DHT22;23398;50.928;7.084;2023-03-04T09:42:07;10.90;67.00
37560;DHT22;23398;50.928;7.084;2023-03-04T09:44:35;11.20;66.80
37560;DHT22;23398;50.928;7.084;2023-03-04T09:47:05;11.50;66.60
37560;DHT22;23398;50.928;7.084;2023-03-04T09:49:31;11.80;65.90
37560;DHT22;23398;50.928;7.084;2023-03-04T10:03:15;13.50;60.30
37560;DHT22;23398;50.928;7.084;2023-03-04T10:06:01;13.50;59.40
37560;DHT22;23398;50.928;7.084;2023-03-04T10:17:12;13.40;58.50
37560;DHT22;23398;50.928;7.084;2023-03-04T10:19:58;13.40;58.60
37560;DHT22;23398;50.928;7.084;2023-03-04T10:22:34;13.30;58.50
37560;DHT22;23398;50.928;7.084;2023-03-04T10:27:42;13.10;58.70
37560;DHT22;23398;50.928;7.084;2023-03-04T10:32:57;13.00;58.60
37560;DHT22;23398;50.928;7.084;2023-03-04T10:35:26;13.00;58.80
37560;DHT22;23398;50.928;7.084;2023-03-04T10:38:01;12.90;58.80
37560;DHT22;23398;50.928;7.084;2023-03-04T10:40:27;12.90;58.80
37560;DHT22;23398;50.928;7.084;2023-03-04T10:42:52;12.80;58.80
37560;DHT22;23398;50.928;7.084;2023-03-04T10:45:25;12.80;59.20
37560;DHT22;23398;50.928;7.084;2023-03-04T10:47:55;12.70;59.30
37560;DHT22;23398;50.928;7.084;2023-03-04T10:50:23;12.70;59.80
37560;DHT22;23398;50.928;7.084;2023-03-04T10:52:50;12.70;60.20
37560;DHT22;23398;50.928;7.084;2023-03-04T10:55:27;12.70;60.40
37560;DHT22;23398;50.928;7.084;2023-03-04T10:58:04;12.70;60.40
37560;DHT22;23398;50.928;7.084;2023-03-04T11:00:32;12.80;60.60
37560;DHT22;23398;50.928;7.084;2023-03-04T11:06:06;13.00;59.90
37560;DHT22;23398;50.928;7.084;2023-03-04T11:08:31;13.10;59.60
37560;DHT22;23398;50.928;7.084;2023-03-04T11:10:57;13.20;59.40
37560;DHT22;23398;50.928;7.084;2023-03-04T11:13:25;13.20;59.00
37560;DHT22;23398;50.928;7.084;2023-03-04T11:16:00;13.20;59.10
37560;DHT22;23398;50.928;7.084;2023-03-04T11:21:07;13.10;59.90
37560;DHT22;23398;50.928;7.084;2023-03-04T11:23:46;13.10;59.80
37560;DHT22;23398;50.928;7.084;2023-03-04T11:26:20;13.00;60.20
37560;DHT22;23398;50.928;7.084;2023-03-04T11:31:52;13.20;61.40
37560;DHT22;23398;50.928;7.084;2023-03-04T11:34:32;13.40;60.90
37560;DHT22;23398;50.928;7.084;2023-03-04T11:39:56;13.70;60.20
37560;DHT22;23398;50.928;7.084;2023-03-04T11:42:49;13.80;60.30
37560;DHT22;23398;50.928;7.084;2023-03-04T11:50:57;14.20;59.50
37560;DHT22;23398;50.928;7.084;2023-03-04T11:56:34;14.30;58.60
37560;DHT22;23398;50.928;7.084;2023-03-04T11:59:24;14.30;57.80
37560;DHT22;23398;50.928;7.084;2023-03-04T12:10:29;13.80;57.10
37560;DHT22;23398;50.928;7.084;2023-03-04T12:21:44;13.30;57.70
37560;DHT22;23398;50.928;7.084;2023-03-04T12:30:02;13.00;57.60
37560;DHT22;23398;50.928;7.084;2023-03-04T12:35:41;12.80;57.80
37560;DHT22;23398;50.928;7.084;2023-03-04T12:38:25;12.70;57.90
37560;DHT22;23398;50.928;7.084;2023-03-04T12:41:38;12.60;58.00
37560;DHT22;23398;50.928;7.084;2023-03-04T12:54:49;12.30;58.90
37560;DHT22;23398;50.928;7.084;2023-03-04T12:57:21;12.30;59.00
37560;DHT22;23398;50.928;7.084;2023-03-04T13:03:10;12.30;59.30
37560;DHT22;23398;50.928;7.084;2023-03-04T13:08:43;12.40;60.20
37560;DHT22;23398;50.928;7.084;2023-03-04T13:16:50;12.70;59.50
37560;DHT22;23398;50.928;7.084;2023-03-04T13:25:32;13.00;59.00
37560;DHT22;23398;50.928;7.084;2023-03-04T13:44:04;13.00;58.60
37560;DHT22;23398;50.928;7.084;2023-03-04T13:46:48;13.00;58.50
37560;DHT22;23398;50.928;7.084;2023-03-04T13:49:20;13.00;58.50
37560;DHT22;23398;50.928;7.084;2023-03-04T13:51:49;13.00;58.30
37560;DHT22;23398;50.928;7.084;2023-03-04T13:54:32;12.90;58.30
37560;DHT22;23398;50.928;7.084;2023-03-04T13:57:10;12.90;58.60
37560;DHT22;23398;50.928;7.084;2023-03-04T13:59:46;13.00;59.00
37560;DHT22;23398;50.928;7.084;2023-03-04T14:02:14;13.00;59.00
37560;DHT22;23398;50.928;7.084;2023-03-04T14:04:59;13.00;58.90
37560;DHT22;23398;50.928;7.084;2023-03-04T14:07:26;13.00;58.60
37560;DHT22;23398;50.928;7.084;2023-03-04T14:12:19;13.10;58.70
37560;DHT22;23398;50.928;7.084;2023-03-04T14:14:51;13.10;58.50
37560;DHT22;23398;50.928;7.084;2023-03-04T14:17:21;13.10;58.30
37560;DHT22;23398;50.928;7.084;2023-03-04T14:19:50;13.10;58.10
37560;DHT22;23398;50.928;7.084;2023-03-04T14:22:36;13.00;58.00
37560;DHT22;23398;50.928;7.084;2023-03-04T14:27:33;12.90;58.20
37560;DHT22;23398;50.928;7.084;2023-03-04T14:30:06;12.80;58.20
37560;DHT22;23398;50.928;7.084;2023-03-04T14:32:32;12.80;58.40
37560;DHT22;23398;50.928;7.084;2023-03-04T14:35:02;12.70;58.70
37560;DHT22;23398;50.928;7.084;2023-03-04T14:40:03;12.50;59.60
37560;DHT22;23398;50.928;7.084;2023-03-04T14:42:39;12.50;60.20
37560;DHT22;23398;50.928;7.084;2023-03-04T14:45:09;12.40;59.90
37560;DHT22;23398;50.928;7.084;2023-03-04T14:47:42;12.30;59.90
37560;DHT22;23398;50.928;7.084;2023-03-04T14:50:17;12.20;59.90
37560;DHT22;23398;50.928;7.084;2023-03-04T14:52:50;12.10;59.90
37560;DHT22;23398;50.928;7.084;2023-03-04T14:55:27;12.00;59.90
37560;DHT22;23398;50.928;7.084;2023-03-04T14:58:06;12.00;60.10
37560;DHT22;23398;50.928;7.084;2023-03-04T15:00:35;11.90;60.60
37560;DHT22;23398;50.928;7.084;2023-03-04T15:03:21;11.90;60.60
37560;DHT22;23398;50.928;7.084;2023-03-04T15:05:48;11.80;61.00
37560;DHT22;23398;50.928;7.084;2023-03-04T15:08:27;11.80;61.00
37560;DHT22;23398;50.928;7.084;2023-03-04T15:11:01;11.80;61.30
37560;DHT22;23398;50.928;7.084;2023-03-04T15:16:08;11.90;61.70
37560;DHT22;23398;50.928;7.084;2023-03-04T15:18:35;11.90;61.50
37560;DHT22;23398;50.928;7.084;2023-03-04T15:21:23;11.90;61.40
37560;DHT22;23398;50.928;7.084;2023-03-04T15:23:50;11.90;61.50
37560;DHT22;23398;50.928;7.084;2023-03-04T15:26:16;12.00;61.60
37560;DHT22;23398;50.928;7.084;2023-03-04T15:28:42;11.90;61.50
37560;DHT22;23398;50.928;7.084;2023-03-04T15:31:19;11.90;61.50
37560;DHT22;23398;50.928;7.084;2023-03-04T15:33:45;11.90;61.60
37560;DHT22;23398;50.928;7.084;2023-03-04T15:36:14;11.90;61.40
37560;DHT22;23398;50.928;7.084;2023-03-04T15:38:45;11.90;61.50
37560;DHT22;23398;50.928;7.084;2023-03-04T15:41:14;11.90;61.80
37560;DHT22;23398;50.928;7.084;2023-03-04T15:43:41;11.80;61.80
37560;DHT22;23398;50.928;7.084;2023-03-04T15:46:10;11.80;62.10
37560;DHT22;23398;50.928;7.084;2023-03-04T15:48:36;11.80;62.40
37560;DHT22;23398;50.928;7.084;2023-03-04T15:51:02;11.70;62.40
37560;DHT22;23398;50.928;7.084;2023-03-04T15:53:44;11.70;62.60
37560;DHT22;23398;50.928;7.084;2023-03-04T15:56:28;11.60;62.80
37560;DHT22;23398;50.928;7.084;2023-03-04T15:58:56;11.50;62.90
37560;DHT22;23398;50.928;7.084;2023-03-04T16:01:23;11.50;63.00
37560;DHT22;23398;50.928;7.084;2023-03-04T16:03:50;11.30;64.40
37560;DHT22;23398;50.928;7.084;2023-03-04T16:06:18;11.30;65.20
37560;DHT22;23398;50.928;7.084;2023-03-04T16:08:46;11.30;65.10
37560;DHT22;23398;50.928;7.084;2023-03-04T16:11:16;11.30;64.80
37560;DHT22;23398;50.928;7.084;2023-03-04T16:13:43;11.40;64.80
37560;DHT22;23398;50.928;7.084;2023-03-04T16:16:12;11.40;64.50
37560;DHT22;23398;50.928;7.084;2023-03-04T16:18:39;11.40;64.50
37560;DHT22;23398;50.928;7.084;2023-03-04T16:21:05;11.40;64.40
37560;DHT22;23398;50.928;7.084;2023-03-04T16:23:37;11.40;64.50
37560;DHT22;23398;50.928;7.084;2023-03-04T16:26:04;11.40;64.60
37560;DHT22;23398;50.928;7.084;2023-03-04T16:28:35;11.40;64.60
37560;DHT22;23398;50.928;7.084;2023-03-04T16:31:01;11.40;64.70
37560;DHT22;23398;50.928;7.084;2023-03-04T16:33:26;11.40;64.90
37560;DHT22;23398;50.928;7.084;2023-03-04T16:35:52;11.30;65.00
37560;DHT22;23398;50.928;7.084;2023-03-04T16:38:29;11.30;65.40
37560;DHT22;23398;50.928;7.084;2023-03-04T16:40:56;11.30;66.10
37560;DHT22;23398;50.928;7.084;2023-03-04T16:43:22;11.30;66.20
37560;DHT22;23398;50.928;7.084;2023-03-04T16:45:48;11.20;66.60
37560;DHT22;23398;50.928;7.084;2023-03-04T16:48:14;11.20;66.90
37560;DHT22;23398;50.928;7.084;2023-03-04T16:50:40;11.10;67.10
37560;DHT22;23398;50.928;7.084;2023-03-04T16:55:44;11.00;67.70
37560;DHT22;23398;50.928;7.084;2023-03-04T16:58:10;11.00;67.20
37560;DHT22;23398;50.928;7.084;2023-03-04T17:00:35;11.00;67.60
37560;DHT22;23398;50.928;7.084;2023-03-04T17:03:01;10.90;68.10
37560;DHT22;23398;50.928;7.084;2023-03-04T17:05:29;10.90;68.60
37560;DHT22;23398;50.928;7.084;2023-03-04T17:07:56;10.80;69.10
37560;DHT22;23398;50.928;7.084;2023-03-04T17:10:22;10.80;69.30
37560;DHT22;23398;50.928;7.084;2023-03-04T17:12:48;10.70;69.30
37560;DHT22;23398;50.928;7.084;2023-03-04T17:15:15;10.70;69.70
37560;DHT22;23398;50.928;7.084;2023-03-04T17:17:41;10.70;70.10
37560;DHT22;23398;50.928;7.084;2023-03-04T17:20:10;10.60;69.90
37560;DHT22;23398;50.928;7.084;2023-03-04T17:22:37;10.60;70.50
37560;DHT22;23398;50.928;7.084;2023-03-04T17:25:03;10.50;70.10
37560;DHT22;23398;50.928;7.084;2023-03-04T17:27:29;10.50;70.50
37560;DHT22;23398;50.928;7.084;2023-03-04T17:29:55;10.50;71.40
37560;DHT22;23398;50.928;7.084;2023-03-04T17:32:21;10.40;71.30
37560;DHT22;23398;50.928;7.084;2023-03-04T17:34:47;10.40;70.90
37560;DHT22;23398;50.928;7.084;2023-03-04T17:37:13;10.30;71.70
37560;DHT22;23398;50.928;7.084;2023-03-04T17:39:39;10.30;72.20
37560;DHT22;23398;50.928;7.084;2023-03-04T17:42:05;10.30;72.60
37560;DHT22;23398;50.928;7.084;2023-03-04T17:44:31;10.20;72.80
37560;DHT22;23398;50.928;7.084;2023-03-04T17:46:57;10.20;73.10
37560;DHT22;23398;50.928;7.084;2023-03-04T17:49:23;10.20;73.50
37560;DHT22;23398;50.928;7.084;2023-03-04T17:51:49;10.20;73.40
37560;DHT22;23398;50.928;7.084;2023-03-04T17:54:15;10.20;73.40